Pawleys Island, SC (29585)

8:56 PM EDT on August 29, 2014 (GMT -0400)
Litchfield Beach | Change Station
CLOSE
Current Station
Personal Weather Station
Location: Pawleys Island, SC
Elevation: 10 ft
Nearby Weather Stations

Elev 10 ft 33.47 °N, 79.10 °W | Updated 6 seconds ago

Clear
Clear
82.2 °F
Feels Like 90 °F
N
2.0
Wind Variable Wind from East
Gusts 2.0 mph

Today
High -- | Low -- °F
--% Chance of Precip.
Yesterday
High -- | Low -- °F
Precip. -- in
6:48 AM 7:45 PM
Waxing Crescent, 17% visible
Pressure 30.11 in
Visibility 10.0 miles
Clouds Clear
Heat Index 90 °F
Dew Point 77 °F
Humidity 84%
Rainfall 0.00 in
Snow Depth Not available.
UV 0 out of 12
Pollen 8.20 out of 12
Air Quality Not available.
Flu Activity Not available.
METAR KGGE 300035Z AUTO 12007KT 10SM CLR 26/25 A3011 RMK AO2

More Conditions Fewer Conditions

Pressure 30.11 in
Visibility 10.0 miles
Clouds Clear
Heat Index 90 °F
Dew Point 77 °F
Humidity 84%
Rainfall 0.00 in
Snow Depth Not available.
UV 0 out of 12
Pollen 8.20 out of 12
Air Quality Not available.
Flu Activity Not available.
METAR KGGE 300035Z AUTO 12007KT 10SM CLR 26/25 A3011 RMK AO2

More Conditions Fewer Conditions

10-Day Weather Forecast

Almanac

Astronomy

Aug. 29, 2014 Rise Set
Actual Time 6:48 AM EDT 7:45 PM EDT
Civil Twilight 6:23 AM EDT 8:11 PM EDT
Nautical Twilight 5:52 AM EDT 8:41 PM EDT
Astronomical Twilight 5:21 AM EDT 9:12 PM EDT
Moon 10:23 AM EDT (8/29) 9:56 PM EDT (8/29)
Length of Visible Light 13h 48m
Length of Day
12h 57m
Tomorrow will be 1m 58s shorter.
Waxing Crescent, 17% of the Moon is Illuminated
Today
Waxing Crescent
Sep 2
First Quarter
Sep 8
Full
Sep 15
Last Quarter
Sep 24
New

Today's Extremes

State Highs State Lows

Community

WunderPhotos

Upload Photos

1,748,390 photos uploaded!

Nearby

Snow Depth

Station Depth Elevation
No new snow has been reported.

Earthquake Activity

City Distance Mag. Time & Date
No recent earthquake activity has been reported nearby.
Minimum magnitude displayed is 2.5.

Coastal Water Temperatures

Place Temperature
Springmaid Pier, SC 82.9 °F

Nearby Weather Stations